KLFI/LFI METAR and TAF weather

Enter ICAO airport designator
Station Type Date Time Source
KLFI METAR 2022/05/26 05:04 UTC NOAA

KLFI 260504Z AUTO 06008KT 6SM -DZ OVC007 16/15 A3025 RMK AO2 RAE01DZB01 CIG 007V009 SLP250 $


Station Type Date Time Source
KLFI Decoded METAR 2022/05/26 05:04 UTC NOAA

Langley Air Force Base, VA, United States (KLFI) 37-05N 076-21W 6M
May 26, 2022 - 01:04 AM EDT / 2022.05.26 0504 UTC
Wind: from the ENE (060 degrees) at 9 MPH (8 KT):0
Visibility: 6 mile(s):0
Sky conditions: overcast
Weather: light drizzle
Temperature: 60 F (16 C)
Dew Point: 59 F (15 C)
Relative Humidity: 93%
Pressure (altimeter): 30.25 in. Hg (1024 hPa)
ob: KLFI 260504Z AUTO 06008KT 6SM -DZ OVC007 16/15 A3025 RMK AO2 RAE01DZB01 CIG 007V009 SLP250
cycle: 5

Station Type Date Time Source
KLFI TAF 2022/05/26 02:21 UTC NOAA

TAF
AMD KLFI 260216Z 2602/2707 08009KT 6000 -DZ BR BKN007 BKN015 OVC020 QNH3022INS
TEMPO 2102/2106 08012G18KT 8000 BR SCT007 BKN015 OVC020
BECMG 2613/2614 11009KT 8000 BR SCT006 OVC015 QNH3019INS
BECMG 2617/2618 13009KT 8000 BR BKN015 OVC020 QNH3001INS TX25/2622Z TN15/2602Z

Example: see airport list